sensor_id;sensor_type;location;lat;lon;timestamp;temperature;humidity
20125;DHT22;10223;50.862;4.360;2023-08-24T00:00:33;24.20;99.90
20125;DHT22;10223;50.862;4.360;2023-08-24T00:03:02;24.20;99.90
20125;DHT22;10223;50.862;4.360;2023-08-24T00:05:30;24.00;99.90
20125;DHT22;10223;50.862;4.360;2023-08-24T00:07:59;24.10;99.90
20125;DHT22;10223;50.862;4.360;2023-08-24T00:10:25;24.10;99.90
20125;DHT22;10223;50.862;4.360;2023-08-24T00:12:52;24.10;99.90
20125;DHT22;10223;50.862;4.360;2023-08-24T00:15:19;24.10;99.90
20125;DHT22;10223;50.862;4.360;2023-08-24T00:17:46;24.10;99.90
20125;DHT22;10223;50.862;4.360;2023-08-24T00:20:14;24.20;99.90
20125;DHT22;10223;50.862;4.360;2023-08-24T00:22:42;24.00;99.90
20125;DHT22;10223;50.862;4.360;2023-08-24T00:25:09;23.90;99.90
20125;DHT22;10223;50.862;4.360;2023-08-24T00:27:36;23.90;99.90
20125;DHT22;10223;50.862;4.360;2023-08-24T00:30:04;23.80;99.90
20125;DHT22;10223;50.862;4.360;2023-08-24T00:32:32;23.70;99.90
20125;DHT22;10223;50.862;4.360;2023-08-24T00:35:00;23.50;99.90
20125;DHT22;10223;50.862;4.360;2023-08-24T00:37:28;23.50;99.90
20125;DHT22;10223;50.862;4.360;2023-08-24T00:39:55;23.60;99.90
20125;DHT22;10223;50.862;4.360;2023-08-24T00:42:22;23.60;99.90
20125;DHT22;10223;50.862;4.360;2023-08-24T00:44:49;23.50;99.90
20125;DHT22;10223;50.862;4.360;2023-08-24T00:47:16;23.40;99.90
20125;DHT22;10223;50.862;4.360;2023-08-24T00:49:43;23.40;99.90
20125;DHT22;10223;50.862;4.360;2023-08-24T00:52:10;23.40;99.90
20125;DHT22;10223;50.862;4.360;2023-08-24T00:54:39;23.20;99.90
20125;DHT22;10223;50.862;4.360;2023-08-24T00:57:07;23.00;99.90
20125;DHT22;10223;50.862;4.360;2023-08-24T00:59:34;22.70;99.90
20125;DHT22;10223;50.862;4.360;2023-08-24T01:02:02;22.70;99.90
20125;DHT22;10223;50.862;4.360;2023-08-24T01:04:29;22.80;99.90
20125;DHT22;10223;50.862;4.360;2023-08-24T01:06:56;22.90;99.90
20125;DHT22;10223;50.862;4.360;2023-08-24T01:09:22;22.90;99.90
20125;DHT22;10223;50.862;4.360;2023-08-24T01:11:59;23.00;99.90
20125;DHT22;10223;50.862;4.360;2023-08-24T01:14:34;23.20;99.90
20125;DHT22;10223;50.862;4.360;2023-08-24T01:17:04;23.20;99.90
20125;DHT22;10223;50.862;4.360;2023-08-24T01:19:38;23.30;99.90
20125;DHT22;10223;50.862;4.360;2023-08-24T01:24:57;23.40;99.90
20125;DHT22;10223;50.862;4.360;2023-08-24T01:27:29;23.50;99.90
20125;DHT22;10223;50.862;4.360;2023-08-24T01:29:57;23.50;99.90
20125;DHT22;10223;50.862;4.360;2023-08-24T01:32:24;23.50;99.90
20125;DHT22;10223;50.862;4.360;2023-08-24T01:34:51;23.50;99.90
20125;DHT22;10223;50.862;4.360;2023-08-24T01:37:18;23.30;99.90
20125;DHT22;10223;50.862;4.360;2023-08-24T01:39:50;23.30;99.90
20125;DHT22;10223;50.862;4.360;2023-08-24T01:42:21;23.40;99.90
20125;DHT22;10223;50.862;4.360;2023-08-24T01:44:56;23.40;99.90
20125;DHT22;10223;50.862;4.360;2023-08-24T01:47:25;23.40;99.90
20125;DHT22;10223;50.862;4.360;2023-08-24T01:49:52;23.60;99.90
20125;DHT22;10223;50.862;4.360;2023-08-24T01:52:20;23.60;99.90
20125;DHT22;10223;50.862;4.360;2023-08-24T01:54:48;23.60;99.90
20125;DHT22;10223;50.862;4.360;2023-08-24T01:57:15;23.50;99.90
20125;DHT22;10223;50.862;4.360;2023-08-24T01:59:41;23.00;99.90
20125;DHT22;10223;50.862;4.360;2023-08-24T02:02:10;22.90;99.90
20125;DHT22;10223;50.862;4.360;2023-08-24T02:04:36;22.90;99.90
20125;DHT22;10223;50.862;4.360;2023-08-24T02:07:03;23.00;99.90
20125;DHT22;10223;50.862;4.360;2023-08-24T02:09:30;23.00;99.90
20125;DHT22;10223;50.862;4.360;2023-08-24T02:11:57;23.00;99.90
20125;DHT22;10223;50.862;4.360;2023-08-24T02:14:24;22.50;99.90
20125;DHT22;10223;50.862;4.360;2023-08-24T02:16:51;22.10;99.90
20125;DHT22;10223;50.862;4.360;2023-08-24T02:19:19;21.70;99.90
20125;DHT22;10223;50.862;4.360;2023-08-24T02:21:46;21.30;99.90
20125;DHT22;10223;50.862;4.360;2023-08-24T02:24:13;21.10;99.90
20125;DHT22;10223;50.862;4.360;2023-08-24T02:26:40;20.80;99.90
20125;DHT22;10223;50.862;4.360;2023-08-24T02:29:07;20.70;99.90
20125;DHT22;10223;50.862;4.360;2023-08-24T02:31:34;20.60;99.90
20125;DHT22;10223;50.862;4.360;2023-08-24T02:34:00;20.60;99.90
20125;DHT22;10223;50.862;4.360;2023-08-24T02:36:29;20.60;99.90
20125;DHT22;10223;50.862;4.360;2023-08-24T02:38:58;20.60;99.90
20125;DHT22;10223;50.862;4.360;2023-08-24T02:41:25;20.60;99.90
20125;DHT22;10223;50.862;4.360;2023-08-24T02:43:52;20.60;99.90
20125;DHT22;10223;50.862;4.360;2023-08-24T02:46:20;20.60;99.90
20125;DHT22;10223;50.862;4.360;2023-08-24T02:48:47;20.60;99.90
20125;DHT22;10223;50.862;4.360;2023-08-24T02:51:14;20.70;99.90
20125;DHT22;10223;50.862;4.360;2023-08-24T02:53:43;20.70;99.90
20125;DHT22;10223;50.862;4.360;2023-08-24T02:56:09;20.70;99.90
20125;DHT22;10223;50.862;4.360;2023-08-24T02:58:36;20.70;99.90
20125;DHT22;10223;50.862;4.360;2023-08-24T03:01:04;20.80;99.90
20125;DHT22;10223;50.862;4.360;2023-08-24T03:03:31;20.90;99.90
20125;DHT22;10223;50.862;4.360;2023-08-24T03:06:00;21.00;99.90
20125;DHT22;10223;50.862;4.360;2023-08-24T03:08:28;21.00;99.90
20125;DHT22;10223;50.862;4.360;2023-08-24T03:10:57;21.00;99.90
20125;DHT22;10223;50.862;4.360;2023-08-24T03:13:24;21.00;99.90
20125;DHT22;10223;50.862;4.360;2023-08-24T03:15:51;21.00;99.90
20125;DHT22;10223;50.862;4.360;2023-08-24T03:18:19;20.90;99.90
20125;DHT22;10223;50.862;4.360;2023-08-24T03:20:47;20.90;99.90
20125;DHT22;10223;50.862;4.360;2023-08-24T03:23:14;20.90;99.90
20125;DHT22;10223;50.862;4.360;2023-08-24T03:25:42;20.90;99.90
20125;DHT22;10223;50.862;4.360;2023-08-24T03:28:11;20.90;99.90
20125;DHT22;10223;50.862;4.360;2023-08-24T03:30:44;21.00;99.90
20125;DHT22;10223;50.862;4.360;2023-08-24T03:33:11;21.10;99.90
20125;DHT22;10223;50.862;4.360;2023-08-24T03:35:39;21.20;99.90
20125;DHT22;10223;50.862;4.360;2023-08-24T03:38:06;21.20;99.90
20125;DHT22;10223;50.862;4.360;2023-08-24T03:40:33;21.10;99.90
20125;DHT22;10223;50.862;4.360;2023-08-24T03:43:01;21.20;99.90
20125;DHT22;10223;50.862;4.360;2023-08-24T03:45:29;21.10;99.90
20125;DHT22;10223;50.862;4.360;2023-08-24T03:47:56;21.10;99.90
20125;DHT22;10223;50.862;4.360;2023-08-24T03:50:23;21.10;99.90
20125;DHT22;10223;50.862;4.360;2023-08-24T03:52:50;21.10;99.90
20125;DHT22;10223;50.862;4.360;2023-08-24T03:55:17;21.10;99.90
20125;DHT22;10223;50.862;4.360;2023-08-24T03:57:44;21.10;99.90
20125;DHT22;10223;50.862;4.360;2023-08-24T04:00:12;21.20;99.90
20125;DHT22;10223;50.862;4.360;2023-08-24T04:02:41;21.30;99.90
20125;DHT22;10223;50.862;4.360;2023-08-24T04:05:08;21.40;99.90
20125;DHT22;10223;50.862;4.360;2023-08-24T04:07:35;21.40;99.90
20125;DHT22;10223;50.862;4.360;2023-08-24T04:10:04;21.50;99.90
20125;DHT22;10223;50.862;4.360;2023-08-24T04:12:31;21.60;99.90
20125;DHT22;10223;50.862;4.360;2023-08-24T04:14:58;21.60;99.90
20125;DHT22;10223;50.862;4.360;2023-08-24T04:17:25;21.70;99.90
20125;DHT22;10223;50.862;4.360;2023-08-24T04:19:53;21.70;99.90
20125;DHT22;10223;50.862;4.360;2023-08-24T04:22:20;21.90;99.90
20125;DHT22;10223;50.862;4.360;2023-08-24T04:24:47;21.80;99.90
20125;DHT22;10223;50.862;4.360;2023-08-24T04:27:14;22.00;99.90
20125;DHT22;10223;50.862;4.360;2023-08-24T04:29:41;21.90;99.90
20125;DHT22;10223;50.862;4.360;2023-08-24T04:32:08;21.70;99.90
20125;DHT22;10223;50.862;4.360;2023-08-24T04:34:35;21.80;99.90
20125;DHT22;10223;50.862;4.360;2023-08-24T04:37:03;21.90;99.90
20125;DHT22;10223;50.862;4.360;2023-08-24T04:39:30;21.80;99.90
20125;DHT22;10223;50.862;4.360;2023-08-24T04:41:57;21.90;99.90
20125;DHT22;10223;50.862;4.360;2023-08-24T04:44:24;21.70;99.90
20125;DHT22;10223;50.862;4.360;2023-08-24T04:46:51;21.80;99.90
20125;DHT22;10223;50.862;4.360;2023-08-24T04:49:17;21.80;99.90
20125;DHT22;10223;50.862;4.360;2023-08-24T04:51:44;21.80;99.90
20125;DHT22;10223;50.862;4.360;2023-08-24T04:54:13;21.80;99.90
20125;DHT22;10223;50.862;4.360;2023-08-24T04:56:40;21.90;99.90
20125;DHT22;10223;50.862;4.360;2023-08-24T04:59:07;21.80;99.90
20125;DHT22;10223;50.862;4.360;2023-08-24T05:01:34;21.80;99.90
20125;DHT22;10223;50.862;4.360;2023-08-24T05:04:01;21.60;99.90
20125;DHT22;10223;50.862;4.360;2023-08-24T05:06:28;21.50;99.90
20125;DHT22;10223;50.862;4.360;2023-08-24T05:08:55;21.60;99.90
20125;DHT22;10223;50.862;4.360;2023-08-24T05:11:26;21.70;99.90
20125;DHT22;10223;50.862;4.360;2023-08-24T05:13:54;21.90;99.90
20125;DHT22;10223;50.862;4.360;2023-08-24T05:16:21;21.90;99.90
20125;DHT22;10223;50.862;4.360;2023-08-24T05:18:48;21.70;99.90
20125;DHT22;10223;50.862;4.360;2023-08-24T05:21:15;21.60;99.90
20125;DHT22;10223;50.862;4.360;2023-08-24T05:23:42;21.40;99.90
20125;DHT22;10223;50.862;4.360;2023-08-24T05:26:09;21.30;99.90
20125;DHT22;10223;50.862;4.360;2023-08-24T05:28:37;21.20;99.90
20125;DHT22;10223;50.862;4.360;2023-08-24T05:31:04;21.20;99.90
20125;DHT22;10223;50.862;4.360;2023-08-24T05:33:31;21.20;99.90
20125;DHT22;10223;50.862;4.360;2023-08-24T05:35:58;21.20;99.90
20125;DHT22;10223;50.862;4.360;2023-08-24T05:38:25;21.30;99.90
20125;DHT22;10223;50.862;4.360;2023-08-24T05:40:52;21.50;99.90
20125;DHT22;10223;50.862;4.360;2023-08-24T05:43:19;21.60;99.90
20125;DHT22;10223;50.862;4.360;2023-08-24T05:45:48;21.80;99.90
20125;DHT22;10223;50.862;4.360;2023-08-24T05:48:15;21.70;99.90
20125;DHT22;10223;50.862;4.360;2023-08-24T05:50:43;21.70;99.90
20125;DHT22;10223;50.862;4.360;2023-08-24T05:53:10;21.70;99.90
20125;DHT22;10223;50.862;4.360;2023-08-24T05:55:37;21.80;99.90
20125;DHT22;10223;50.862;4.360;2023-08-24T05:58:04;21.80;99.90
20125;DHT22;10223;50.862;4.360;2023-08-24T06:00:31;21.90;99.90
20125;DHT22;10223;50.862;4.360;2023-08-24T06:03:00;22.00;99.90
20125;DHT22;10223;50.862;4.360;2023-08-24T06:05:27;22.20;99.90
20125;DHT22;10223;50.862;4.360;2023-08-24T06:07:53;22.30;99.90
20125;DHT22;10223;50.862;4.360;2023-08-24T06:10:20;22.40;99.90
20125;DHT22;10223;50.862;4.360;2023-08-24T06:12:48;22.50;99.90
20125;DHT22;10223;50.862;4.360;2023-08-24T06:15:15;22.60;99.90
20125;DHT22;10223;50.862;4.360;2023-08-24T06:17:42;22.80;99.90
20125;DHT22;10223;50.862;4.360;2023-08-24T06:20:12;22.80;99.90
20125;DHT22;10223;50.862;4.360;2023-08-24T06:22:39;22.90;99.90
20125;DHT22;10223;50.862;4.360;2023-08-24T06:25:07;22.80;99.90
20125;DHT22;10223;50.862;4.360;2023-08-24T06:27:34;22.70;99.90
20125;DHT22;10223;50.862;4.360;2023-08-24T06:30:03;22.70;99.90
20125;DHT22;10223;50.862;4.360;2023-08-24T06:32:30;22.90;99.90
20125;DHT22;10223;50.862;4.360;2023-08-24T06:34:57;23.00;99.90
20125;DHT22;10223;50.862;4.360;2023-08-24T06:37:25;23.00;99.90
20125;DHT22;10223;50.862;4.360;2023-08-24T06:39:52;23.10;99.90
20125;DHT22;10223;50.862;4.360;2023-08-24T06:42:19;23.20;99.90
20125;DHT22;10223;50.862;4.360;2023-08-24T06:44:47;23.20;99.90
20125;DHT22;10223;50.862;4.360;2023-08-24T06:47:15;23.40;99.90
20125;DHT22;10223;50.862;4.360;2023-08-24T06:49:42;23.50;99.90
20125;DHT22;10223;50.862;4.360;2023-08-24T06:52:09;23.70;99.90
20125;DHT22;10223;50.862;4.360;2023-08-24T06:54:37;23.90;99.90
20125;DHT22;10223;50.862;4.360;2023-08-24T06:57:04;23.80;99.90
20125;DHT22;10223;50.862;4.360;2023-08-24T06:59:31;23.70;99.90
20125;DHT22;10223;50.862;4.360;2023-08-24T07:01:58;23.70;99.90
20125;DHT22;10223;50.862;4.360;2023-08-24T07:04:25;23.80;99.90
20125;DHT22;10223;50.862;4.360;2023-08-24T07:06:52;23.70;99.90
20125;DHT22;10223;50.862;4.360;2023-08-24T07:09:19;23.80;99.90
20125;DHT22;10223;50.862;4.360;2023-08-24T07:11:48;23.90;99.90
20125;DHT22;10223;50.862;4.360;2023-08-24T07:14:14;24.10;99.90
20125;DHT22;10223;50.862;4.360;2023-08-24T07:16:41;24.30;99.90
20125;DHT22;10223;50.862;4.360;2023-08-24T07:19:09;24.60;99.90
20125;DHT22;10223;50.862;4.360;2023-08-24T07:21:36;24.70;99.90
20125;DHT22;10223;50.862;4.360;2023-08-24T07:24:03;24.80;99.90
20125;DHT22;10223;50.862;4.360;2023-08-24T07:26:30;24.60;99.90
20125;DHT22;10223;50.862;4.360;2023-08-24T07:28:58;24.70;99.90
20125;DHT22;10223;50.862;4.360;2023-08-24T07:31:25;24.90;99.90
20125;DHT22;10223;50.862;4.360;2023-08-24T07:33:52;24.80;99.90
20125;DHT22;10223;50.862;4.360;2023-08-24T07:36:19;24.80;99.90
20125;DHT22;10223;50.862;4.360;2023-08-24T07:38:46;24.80;99.90
20125;DHT22;10223;50.862;4.360;2023-08-24T07:41:13;24.80;99.90
20125;DHT22;10223;50.862;4.360;2023-08-24T07:43:42;24.50;99.90
20125;DHT22;10223;50.862;4.360;2023-08-24T07:46:11;24.60;99.90
20125;DHT22;10223;50.862;4.360;2023-08-24T07:48:37;24.80;99.90
20125;DHT22;10223;50.862;4.360;2023-08-24T07:51:04;24.80;99.90
20125;DHT22;10223;50.862;4.360;2023-08-24T07:53:32;24.60;99.90
20125;DHT22;10223;50.862;4.360;2023-08-24T07:56:00;24.80;99.90
20125;DHT22;10223;50.862;4.360;2023-08-24T07:58:27;24.70;99.90
20125;DHT22;10223;50.862;4.360;2023-08-24T08:00:54;24.60;99.90
20125;DHT22;10223;50.862;4.360;2023-08-24T08:03:22;24.40;99.90
20125;DHT22;10223;50.862;4.360;2023-08-24T08:05:49;24.60;99.90
20125;DHT22;10223;50.862;4.360;2023-08-24T08:08:16;24.60;99.90
20125;DHT22;10223;50.862;4.360;2023-08-24T08:10:43;24.50;99.90
20125;DHT22;10223;50.862;4.360;2023-08-24T08:13:10;24.60;99.90
20125;DHT22;10223;50.862;4.360;2023-08-24T08:15:37;24.60;99.90
20125;DHT22;10223;50.862;4.360;2023-08-24T08:18:05;24.60;99.90
20125;DHT22;10223;50.862;4.360;2023-08-24T08:20:33;24.60;99.90
20125;DHT22;10223;50.862;4.360;2023-08-24T08:23:01;24.60;99.90
20125;DHT22;10223;50.862;4.360;2023-08-24T08:25:28;24.40;99.90
20125;DHT22;10223;50.862;4.360;2023-08-24T08:27:55;24.20;99.90
20125;DHT22;10223;50.862;4.360;2023-08-24T08:30:22;24.10;99.90
20125;DHT22;10223;50.862;4.360;2023-08-24T08:32:49;24.10;99.90
20125;DHT22;10223;50.862;4.360;2023-08-24T08:35:17;24.20;99.90
20125;DHT22;10223;50.862;4.360;2023-08-24T08:37:45;24.30;99.90
20125;DHT22;10223;50.862;4.360;2023-08-24T08:40:17;24.40;99.90
20125;DHT22;10223;50.862;4.360;2023-08-24T08:42:45;24.40;99.90
20125;DHT22;10223;50.862;4.360;2023-08-24T08:45:12;24.50;99.90
20125;DHT22;10223;50.862;4.360;2023-08-24T08:47:39;24.70;99.90
20125;DHT22;10223;50.862;4.360;2023-08-24T08:50:08;24.50;99.90
20125;DHT22;10223;50.862;4.360;2023-08-24T08:52:35;24.40;99.90
20125;DHT22;10223;50.862;4.360;2023-08-24T08:55:05;24.70;99.90
20125;DHT22;10223;50.862;4.360;2023-08-24T08:57:34;24.80;99.90
20125;DHT22;10223;50.862;4.360;2023-08-24T09:00:02;24.70;99.90
20125;DHT22;10223;50.862;4.360;2023-08-24T09:02:31;24.60;99.90
20125;DHT22;10223;50.862;4.360;2023-08-24T09:04:58;24.60;99.90
20125;DHT22;10223;50.862;4.360;2023-08-24T09:07:25;24.90;99.90
20125;DHT22;10223;50.862;4.360;2023-08-24T09:09:53;25.20;99.90
20125;DHT22;10223;50.862;4.360;2023-08-24T09:12:21;25.50;99.90
20125;DHT22;10223;50.862;4.360;2023-08-24T09:14:48;25.70;99.90
20125;DHT22;10223;50.862;4.360;2023-08-24T09:17:21;25.70;99.90
20125;DHT22;10223;50.862;4.360;2023-08-24T09:19:50;25.90;99.90
20125;DHT22;10223;50.862;4.360;2023-08-24T09:22:17;25.90;99.90
20125;DHT22;10223;50.862;4.360;2023-08-24T09:24:45;25.90;99.90
20125;DHT22;10223;50.862;4.360;2023-08-24T09:27:16;25.80;99.90
20125;DHT22;10223;50.862;4.360;2023-08-24T09:29:47;25.50;99.90
20125;DHT22;10223;50.862;4.360;2023-08-24T09:32:15;25.50;99.90
20125;DHT22;10223;50.862;4.360;2023-08-24T09:34:41;25.50;99.90
20125;DHT22;10223;50.862;4.360;2023-08-24T09:37:13;25.20;99.90
20125;DHT22;10223;50.862;4.360;2023-08-24T09:39:40;24.80;99.90
20125;DHT22;10223;50.862;4.360;2023-08-24T09:42:07;24.20;99.90
20125;DHT22;10223;50.862;4.360;2023-08-24T09:44:34;23.80;99.90
20125;DHT22;10223;50.862;4.360;2023-08-24T09:47:09;23.60;99.90
20125;DHT22;10223;50.862;4.360;2023-08-24T09:49:36;23.30;99.90
20125;DHT22;10223;50.862;4.360;2023-08-24T09:52:06;23.00;99.90
20125;DHT22;10223;50.862;4.360;2023-08-24T09:54:37;22.90;99.90
20125;DHT22;10223;50.862;4.360;2023-08-24T09:57:06;22.70;99.90
20125;DHT22;10223;50.862;4.360;2023-08-24T09:59:34;22.50;99.90
20125;DHT22;10223;50.862;4.360;2023-08-24T10:02:09;22.30;99.90
20125;DHT22;10223;50.862;4.360;2023-08-24T10:04:38;22.00;99.90
20125;DHT22;10223;50.862;4.360;2023-08-24T10:07:10;21.80;99.90
20125;DHT22;10223;50.862;4.360;2023-08-24T10:09:45;21.50;99.90
20125;DHT22;10223;50.862;4.360;2023-08-24T10:12:13;21.30;99.90
20125;DHT22;10223;50.862;4.360;2023-08-24T10:14:47;21.20;99.90
20125;DHT22;10223;50.862;4.360;2023-08-24T10:17:17;21.00;99.90
20125;DHT22;10223;50.862;4.360;2023-08-24T10:19:44;20.80;99.90
20125;DHT22;10223;50.862;4.360;2023-08-24T10:22:13;20.70;99.90
20125;DHT22;10223;50.862;4.360;2023-08-24T10:24:42;20.60;99.90
20125;DHT22;10223;50.862;4.360;2023-08-24T10:27:10;20.60;99.90
20125;DHT22;10223;50.862;4.360;2023-08-24T10:29:38;20.60;99.90
20125;DHT22;10223;50.862;4.360;2023-08-24T10:32:05;20.70;99.90
20125;DHT22;10223;50.862;4.360;2023-08-24T10:34:35;20.60;99.90
20125;DHT22;10223;50.862;4.360;2023-08-24T10:37:08;20.50;99.90
20125;DHT22;10223;50.862;4.360;2023-08-24T10:39:35;20.60;99.90
20125;DHT22;10223;50.862;4.360;2023-08-24T10:42:04;20.60;99.90
20125;DHT22;10223;50.862;4.360;2023-08-24T10:44:36;20.60;99.90
20125;DHT22;10223;50.862;4.360;2023-08-24T10:47:07;20.70;99.90
20125;DHT22;10223;50.862;4.360;2023-08-24T10:49:35;20.60;99.90
20125;DHT22;10223;50.862;4.360;2023-08-24T10:52:20;20.70;99.90
20125;DHT22;10223;50.862;4.360;2023-08-24T10:54:48;20.70;99.90
20125;DHT22;10223;50.862;4.360;2023-08-24T10:57:19;20.70;99.90
20125;DHT22;10223;50.862;4.360;2023-08-24T10:59:57;20.80;99.90
20125;DHT22;10223;50.862;4.360;2023-08-24T11:02:25;20.80;99.90
20125;DHT22;10223;50.862;4.360;2023-08-24T11:05:06;20.90;99.90
20125;DHT22;10223;50.862;4.360;2023-08-24T11:07:34;21.00;99.90
20125;DHT22;10223;50.862;4.360;2023-08-24T11:10:11;21.00;99.90
20125;DHT22;10223;50.862;4.360;2023-08-24T11:13:04;21.20;99.90
20125;DHT22;10223;50.862;4.360;2023-08-24T11:15:32;21.10;99.90
20125;DHT22;10223;50.862;4.360;2023-08-24T11:18:24;21.00;99.90
20125;DHT22;10223;50.862;4.360;2023-08-24T11:20:54;21.10;99.90
20125;DHT22;10223;50.862;4.360;2023-08-24T11:23:23;21.00;99.90
20125;DHT22;10223;50.862;4.360;2023-08-24T11:25:52;21.10;99.90
20125;DHT22;10223;50.862;4.360;2023-08-24T11:28:22;21.30;99.90
20125;DHT22;10223;50.862;4.360;2023-08-24T11:30:51;21.40;99.90
20125;DHT22;10223;50.862;4.360;2023-08-24T11:33:27;21.50;99.90
20125;DHT22;10223;50.862;4.360;2023-08-24T11:35:56;21.40;99.90
20125;DHT22;10223;50.862;4.360;2023-08-24T11:38:23;21.50;99.90
20125;DHT22;10223;50.862;4.360;2023-08-24T11:40:50;21.70;99.90
20125;DHT22;10223;50.862;4.360;2023-08-24T11:43:24;21.70;99.90
20125;DHT22;10223;50.862;4.360;2023-08-24T11:45:51;21.80;99.90
20125;DHT22;10223;50.862;4.360;2023-08-24T11:48:18;21.80;99.90
20125;DHT22;10223;50.862;4.360;2023-08-24T11:50:45;21.90;99.90
20125;DHT22;10223;50.862;4.360;2023-08-24T11:53:16;22.00;99.90
20125;DHT22;10223;50.862;4.360;2023-08-24T11:55:43;22.10;99.90
20125;DHT22;10223;50.862;4.360;2023-08-24T11:58:14;22.10;99.90
20125;DHT22;10223;50.862;4.360;2023-08-24T12:00:42;22.00;99.90
20125;DHT22;10223;50.862;4.360;2023-08-24T12:03:09;22.00;99.90
20125;DHT22;10223;50.862;4.360;2023-08-24T12:05:36;22.10;99.90
20125;DHT22;10223;50.862;4.360;2023-08-24T12:08:03;22.10;99.90
20125;DHT22;10223;50.862;4.360;2023-08-24T12:10:32;22.10;99.90
20125;DHT22;10223;50.862;4.360;2023-08-24T12:13:02;22.10;99.90
20125;DHT22;10223;50.862;4.360;2023-08-24T12:15:29;22.00;99.90
20125;DHT22;10223;50.862;4.360;2023-08-24T12:17:55;21.90;99.90
20125;DHT22;10223;50.862;4.360;2023-08-24T12:20:23;21.70;99.90
20125;DHT22;10223;50.862;4.360;2023-08-24T12:22:53;21.70;99.90
20125;DHT22;10223;50.862;4.360;2023-08-24T12:25:24;21.60;99.90
20125;DHT22;10223;50.862;4.360;2023-08-24T12:27:53;21.60;99.90
20125;DHT22;10223;50.862;4.360;2023-08-24T12:30:43;21.60;99.90
20125;DHT22;10223;50.862;4.360;2023-08-24T12:33:21;21.50;99.90
20125;DHT22;10223;50.862;4.360;2023-08-24T12:35:48;21.40;99.90
20125;DHT22;10223;50.862;4.360;2023-08-24T12:38:15;21.50;99.90
20125;DHT22;10223;50.862;4.360;2023-08-24T12:40:41;21.50;99.90
20125;DHT22;10223;50.862;4.360;2023-08-24T12:43:10;21.40;99.90
20125;DHT22;10223;50.862;4.360;2023-08-24T12:45:37;21.40;99.90
20125;DHT22;10223;50.862;4.360;2023-08-24T12:48:04;21.30;99.90
20125;DHT22;10223;50.862;4.360;2023-08-24T12:50:32;21.30;99.90
20125;DHT22;10223;50.862;4.360;2023-08-24T12:52:59;21.30;99.90
20125;DHT22;10223;50.862;4.360;2023-08-24T12:55:26;21.30;99.90
20125;DHT22;10223;50.862;4.360;2023-08-24T12:57:53;21.30;99.90
20125;DHT22;10223;50.862;4.360;2023-08-24T13:00:22;21.30;99.90
20125;DHT22;10223;50.862;4.360;2023-08-24T13:02:50;21.30;99.90
20125;DHT22;10223;50.862;4.360;2023-08-24T13:05:17;21.40;99.90
20125;DHT22;10223;50.862;4.360;2023-08-24T13:07:44;21.40;99.90
20125;DHT22;10223;50.862;4.360;2023-08-24T13:10:11;21.30;99.90
20125;DHT22;10223;50.862;4.360;2023-08-24T13:12:38;21.40;99.90
20125;DHT22;10223;50.862;4.360;2023-08-24T13:15:06;21.30;99.90
20125;DHT22;10223;50.862;4.360;2023-08-24T13:17:34;21.50;99.90
20125;DHT22;10223;50.862;4.360;2023-08-24T13:20:01;21.50;99.90
20125;DHT22;10223;50.862;4.360;2023-08-24T13:22:29;21.50;99.90
20125;DHT22;10223;50.862;4.360;2023-08-24T13:24:56;21.50;99.90
20125;DHT22;10223;50.862;4.360;2023-08-24T13:27:23;21.50;99.90
20125;DHT22;10223;50.862;4.360;2023-08-24T13:29:50;21.40;99.90
20125;DHT22;10223;50.862;4.360;2023-08-24T13:32:17;21.30;99.90
20125;DHT22;10223;50.862;4.360;2023-08-24T13:34:46;21.30;99.90
20125;DHT22;10223;50.862;4.360;2023-08-24T13:37:13;21.30;99.90
20125;DHT22;10223;50.862;4.360;2023-08-24T13:39:40;21.20;99.90
20125;DHT22;10223;50.862;4.360;2023-08-24T13:42:07;21.30;99.90
20125;DHT22;10223;50.862;4.360;2023-08-24T13:44:34;21.30;99.90
20125;DHT22;10223;50.862;4.360;2023-08-24T13:47:00;21.30;99.90
20125;DHT22;10223;50.862;4.360;2023-08-24T13:49:27;21.20;99.90
20125;DHT22;10223;50.862;4.360;2023-08-24T13:51:56;21.20;99.90
20125;DHT22;10223;50.862;4.360;2023-08-24T13:54:23;21.20;99.90
20125;DHT22;10223;50.862;4.360;2023-08-24T13:56:52;21.20;99.90
20125;DHT22;10223;50.862;4.360;2023-08-24T13:59:19;21.20;99.90
20125;DHT22;10223;50.862;4.360;2023-08-24T14:01:46;21.20;99.90
20125;DHT22;10223;50.862;4.360;2023-08-24T14:04:16;21.20;99.90
20125;DHT22;10223;50.862;4.360;2023-08-24T14:06:43;21.20;99.90
20125;DHT22;10223;50.862;4.360;2023-08-24T14:09:11;21.20;99.90
20125;DHT22;10223;50.862;4.360;2023-08-24T14:11:38;21.30;99.90
20125;DHT22;10223;50.862;4.360;2023-08-24T14:14:05;21.30;99.90
20125;DHT22;10223;50.862;4.360;2023-08-24T14:16:32;21.30;99.90
20125;DHT22;10223;50.862;4.360;2023-08-24T14:18:59;21.50;99.90
20125;DHT22;10223;50.862;4.360;2023-08-24T14:21:25;21.70;99.90
20125;DHT22;10223;50.862;4.360;2023-08-24T14:23:52;21.80;99.90
20125;DHT22;10223;50.862;4.360;2023-08-24T14:26:21;21.80;99.90
20125;DHT22;10223;50.862;4.360;2023-08-24T14:28:49;21.90;99.90
20125;DHT22;10223;50.862;4.360;2023-08-24T14:31:19;21.90;99.90
20125;DHT22;10223;50.862;4.360;2023-08-24T14:33:46;21.90;99.90
20125;DHT22;10223;50.862;4.360;2023-08-24T14:36:13;22.10;99.90
20125;DHT22;10223;50.862;4.360;2023-08-24T14:38:40;22.10;99.90
20125;DHT22;10223;50.862;4.360;2023-08-24T14:41:09;22.10;99.90
20125;DHT22;10223;50.862;4.360;2023-08-24T14:43:38;22.20;99.90
20125;DHT22;10223;50.862;4.360;2023-08-24T14:46:05;22.20;99.90
20125;DHT22;10223;50.862;4.360;2023-08-24T14:48:32;22.20;99.90
20125;DHT22;10223;50.862;4.360;2023-08-24T14:51:00;22.20;99.90
20125;DHT22;10223;50.862;4.360;2023-08-24T14:53:27;22.20;99.90
20125;DHT22;10223;50.862;4.360;2023-08-24T14:55:55;22.20;99.90
20125;DHT22;10223;50.862;4.360;2023-08-24T14:58:22;22.20;99.90
20125;DHT22;10223;50.862;4.360;2023-08-24T15:00:52;22.20;99.90
20125;DHT22;10223;50.862;4.360;2023-08-24T15:03:19;22.30;99.90
20125;DHT22;10223;50.862;4.360;2023-08-24T15:05:55;22.30;99.90
20125;DHT22;10223;50.862;4.360;2023-08-24T15:08:22;22.30;99.90
20125;DHT22;10223;50.862;4.360;2023-08-24T15:10:49;22.40;99.90
20125;DHT22;10223;50.862;4.360;2023-08-24T15:13:16;22.40;99.90
20125;DHT22;10223;50.862;4.360;2023-08-24T15:15:43;22.40;99.90
20125;DHT22;10223;50.862;4.360;2023-08-24T15:18:12;22.30;99.90
20125;DHT22;10223;50.862;4.360;2023-08-24T15:20:39;22.50;99.90
20125;DHT22;10223;50.862;4.360;2023-08-24T15:23:06;22.60;99.90
20125;DHT22;10223;50.862;4.360;2023-08-24T15:25:33;22.50;99.90
20125;DHT22;10223;50.862;4.360;2023-08-24T15:28:00;22.50;99.90
20125;DHT22;10223;50.862;4.360;2023-08-24T15:30:27;22.60;99.90
20125;DHT22;10223;50.862;4.360;2023-08-24T15:32:54;22.70;99.90
20125;DHT22;10223;50.862;4.360;2023-08-24T15:35:22;22.80;99.90
20125;DHT22;10223;50.862;4.360;2023-08-24T15:37:49;22.90;99.90